Time;durP1;ratioP1;P1;durP2;ratioP2;P2;SDS_P1;SDS_P2;PMS_P1;PMS_P2;Temp;Humidity;BMP_temperature;BMP_pressure;BME280_temperature;BME280_humidity;BME280_pressure;Samples;Min_cycle;Max_cycle;Signal;HPM_P1;HPM_P2
2022/04/08 00:02:23;;;;;;;11.85;4.60;;;;;;;16.13;48.51;96224.91;4381973;32;20094;-80
2022/04/08 00:04:51;;;;;;;12.02;4.50;;;;;;;16.62;47.31;96225.47;4382194;32;20177;-80
2022/04/08 00:07:18;;;;;;;10.77;5.05;;;;;;;16.47;47.49;96224.31;4380772;32;20146;-79
2022/04/08 00:09:44;;;;;;;9.98;4.78;;;;;;;16.86;46.22;96231.91;4382072;32;20121;-80
2022/04/08 00:12:12;;;;;;;12.07;5.55;;;;;;;16.94;45.80;96227.59;4383173;32;20146;-80
2022/04/08 00:14:39;;;;;;;17.83;5.97;;;;;;;16.79;46.16;96231.66;4383335;32;20098;-79
2022/04/08 00:17:06;;;;;;;13.15;5.95;;;;;;;16.79;46.06;96234.28;4383512;32;20102;-80
2022/04/08 00:19:33;;;;;;;16.95;6.28;;;;;;;16.71;46.13;96231.59;4383467;32;20091;-80
2022/04/08 00:22:01;;;;;;;14.30;6.90;;;;;;;16.45;47.10;96227.06;4381554;32;20138;-80
2022/04/08 00:24:28;;;;;;;16.02;7.78;;;;;;;16.16;47.46;96211.63;4369594;32;20110;-80
2022/04/08 00:26:55;;;;;;;15.98;8.15;;;;;;;16.10;48.07;96212.19;4382961;32;20170;-80
2022/04/08 00:29:22;;;;;;;15.77;7.55;;;;;;;16.51;46.66;96227.47;4382166;32;20134;-80
2022/04/08 00:31:50;;;;;;;15.82;7.70;;;;;;;16.87;45.75;96234.34;4382433;32;20142;-80
2022/04/08 00:34:17;;;;;;;14.70;8.05;;;;;;;17.24;44.87;96226.41;4382171;32;20095;-80
2022/04/08 00:36:44;;;;;;;16.70;7.25;;;;;;;16.91;45.59;96237.50;4381537;32;20090;-80
2022/04/08 00:39:13;;;;;;;15.75;7.45;;;;;;;17.29;44.72;96244.16;4381780;32;20157;-80
2022/04/08 00:41:39;;;;;;;16.85;9.48;;;;;;;16.85;45.43;96227.66;4381830;32;20138;-80
2022/04/08 00:44:07;;;;;;;20.15;9.77;;;;;;;17.17;44.92;96227.13;4381840;32;20716;-80
2022/04/08 00:46:37;;;;;;;19.90;10.65;;;;;;;17.54;43.85;96238.16;4368882;32;20103;-80
2022/04/08 00:49:05;;;;;;;21.75;11.73;;;;;;;17.33;44.48;96235.91;4382350;32;20101;-80
2022/04/08 00:51:35;;;;;;;22.87;12.37;;;;;;;16.41;47.03;96230.94;4381248;32;20138;-80
2022/04/08 00:54:03;;;;;;;23.20;12.35;;;;;;;16.43;47.09;96244.63;4368455;32;20161;-80
2022/04/08 00:56:30;;;;;;;24.27;13.23;;;;;;;16.65;46.67;96250.37;4367961;32;20103;-79
2022/04/08 00:58:58;;;;;;;23.35;13.30;;;;;;;16.81;45.99;96249.78;4368141;32;20095;-80
2022/04/08 01:01:25;;;;;;;24.02;13.25;;;;;;;16.77;46.24;96260.47;4381069;32;20153;-80
2022/04/08 01:03:52;;;;;;;25.20;12.45;;;;;;;16.31;47.37;96250.16;4380785;32;20091;-80
2022/04/08 01:06:20;;;;;;;26.05;12.82;;;;;;;16.56;46.40;96267.69;4367627;32;20162;-80
2022/04/08 01:08:49;;;;;;;25.85;13.25;;;;;;;16.01;47.83;96256.44;4367473;32;20073;-80
2022/04/08 01:11:16;;;;;;;26.20;14.30;;;;;;;15.78;48.94;96267.19;4367090;32;20146;-80
2022/04/08 01:13:43;;;;;;;28.95;14.07;;;;;;;15.63;49.12;96281.59;4380699;32;20445;-80
2022/04/08 01:16:10;;;;;;;28.52;15.10;;;;;;;15.60;49.61;96281.87;4380818;32;20438;-80
2022/04/08 01:18:37;;;;;;;31.40;14.85;;;;;;;14.99;51.76;96280.38;4380419;32;20434;-80
2022/04/08 01:21:05;;;;;;;29.33;15.93;;;;;;;14.74;52.81;96284.28;4380761;32;20464;-80
2022/04/08 01:23:35;;;;;;;28.70;15.40;;;;;;;15.15;51.54;96284.19;4380627;32;20105;-80
2022/04/08 01:26:06;;;;;;;32.55;16.27;;;;;;;14.77;52.79;96289.19;4366884;32;20446;-80
2022/04/08 01:28:33;;;;;;;31.60;16.37;;;;;;;14.93;52.59;96283.50;4380869;32;20169;-80
2022/04/08 01:31:00;;;;;;;33.83;16.73;;;;;;;14.72;53.03;96282.78;4381194;32;20095;-80
2022/04/08 01:33:27;;;;;;;31.98;16.65;;;;;;;14.98;52.54;96290.88;4380417;32;20151;-80
2022/04/08 01:35:54;;;;;;;33.22;15.93;;;;;;;15.00;52.52;96287.22;4380772;32;20146;-80
2022/04/08 01:38:21;;;;;;;32.00;16.25;;;;;;;14.99;52.69;96300.31;4380869;32;20158;-80
2022/04/08 01:40:48;;;;;;;33.60;16.98;;;;;;;15.50;50.94;96307.03;4380718;32;20137;-80
2022/04/08 01:43:15;;;;;;;31.70;16.67;;;;;;;15.62;50.46;96319.75;4380741;32;20114;-80
2022/04/08 01:45:42;;;;;;;36.55;17.23;;;;;;;15.78;49.90;96326.19;4380192;32;20110;-80
2022/04/08 01:48:09;;;;;;;33.15;16.10;;;;;;;15.55;50.24;96336.03;4380639;32;20150;-80
2022/04/08 01:50:36;;;;;;;30.65;15.45;;;;;;;15.57;50.13;96340.13;4380571;32;20153;-80
2022/04/08 01:53:03;;;;;;;31.75;15.82;;;;;;;15.44;50.41;96346.56;4380043;32;20106;-80
2022/04/08 01:55:30;;;;;;;29.25;15.85;;;;;;;14.90;51.79;96340.09;4380424;32;20158;-80
2022/04/08 01:57:57;;;;;;;31.62;15.13;;;;;;;15.03;51.53;96346.66;4380596;32;20335;-80
2022/04/08 02:00:25;;;;;;;32.78;16.05;;;;;;;14.76;52.54;96354.25;4379699;32;20138;-80
2022/04/08 02:02:52;;;;;;;31.15;15.98;;;;;;;14.59;52.68;96349.69;4380386;32;20155;-80
2022/04/08 02:05:19;;;;;;;30.88;16.90;;;;;;;14.93;52.47;96364.00;4380321;32;20494;-80
2022/04/08 02:07:46;;;;;;;31.33;16.15;;;;;;;14.93;52.33;96355.38;4380038;32;20118;-80
2022/04/08 02:10:13;;;;;;;35.05;17.20;;;;;;;15.38;50.86;96347.91;4380328;32;20087;-80
2022/04/08 02:12:40;;;;;;;34.70;18.58;;;;;;;15.69;49.82;96348.63;4380399;32;20146;-80
2022/04/08 02:15:07;;;;;;;35.35;18.42;;;;;;;15.76;50.14;96349.72;4379853;32;20147;-80
2022/04/08 02:17:34;;;;;;;32.95;17.35;;;;;;;15.70;50.23;96355.47;4366653;32;20105;-80
2022/04/08 02:20:04;;;;;;;35.05;17.70;;;;;;;16.03;49.13;96355.97;4380238;32;20145;-80
2022/04/08 02:22:31;;;;;;;37.92;19.62;;;;;;;15.45;51.16;96356.81;4379732;32;20162;-80
2022/04/08 02:24:58;;;;;;;36.90;18.92;;;;;;;15.14;52.28;96360.50;4380083;32;20107;-80
2022/04/08 02:27:26;;;;;;;38.70;20.08;;;;;;;14.73;53.95;96363.13;4380297;32;20095;-80
2022/04/08 02:29:53;;;;;;;36.00;18.80;;;;;;;14.88;53.25;96384.34;4379858;32;20154;-80
2022/04/08 02:32:20;;;;;;;36.03;18.80;;;;;;;14.41;54.68;96385.78;4378911;32;20121;-80
2022/04/08 02:34:47;;;;;;;36.50;20.48;;;;;;;14.83;53.98;96401.28;4378969;32;20107;-80
2022/04/08 02:37:14;;;;;;;38.92;20.77;;;;;;;15.19;52.69;96416.28;4380176;32;20122;-80
2022/04/08 02:39:41;;;;;;;35.72;18.30;;;;;;;15.43;51.69;96418.53;4380188;32;20108;-80
2022/04/08 02:42:08;;;;;;;34.63;18.50;;;;;;;15.49;51.56;96432.75;4379717;32;20150;-80
2022/04/08 02:44:35;;;;;;;33.88;19.08;;;;;;;15.04;52.96;96439.22;4366621;32;20190;-80
2022/04/08 02:47:03;;;;;;;37.17;19.33;;;;;;;14.92;53.70;96460.22;4380572;32;20083;-80
2022/04/08 02:49:30;;;;;;;35.92;18.77;;;;;;;14.58;55.13;96467.44;4366732;32;20516;-80
2022/04/08 02:51:57;;;;;;;35.80;19.55;;;;;;;14.37;55.80;96464.84;4380513;32;20117;-80
2022/04/08 02:54:25;;;;;;;36.40;19.35;;;;;;;14.38;55.60;96463.87;4380501;32;20157;-80
2022/04/08 02:56:52;;;;;;;33.70;18.25;;;;;;;14.94;54.00;96468.69;4380190;32;20417;-80
2022/04/08 02:59:19;;;;;;;35.50;18.67;;;;;;;14.04;56.61;96469.25;4380534;32;20142;-80
2022/04/08 03:01:46;;;;;;;39.45;19.98;;;;;;;15.41;52.20;96467.19;4380270;32;20606;-80
2022/04/08 03:04:14;;;;;;;32.97;17.37;;;;;;;15.30;52.54;96478.50;4380245;32;20169;-80
2022/04/08 03:06:41;;;;;;;31.17;17.42;;;;;;;14.56;55.12;96487.50;4380613;32;20091;-80
2022/04/08 03:09:08;;;;;;;28.58;15.27;;;;;;;14.50;55.75;96491.44;4380556;32;20105;-80
2022/04/08 03:11:35;;;;;;;31.55;16.87;;;;;;;14.55;55.82;96480.66;4380350;32;20136;-80
2022/04/08 03:14:02;;;;;;;32.72;15.85;;;;;;;14.68;55.35;96476.09;4380880;32;20145;-80
2022/04/08 03:16:29;;;;;;;31.40;17.27;;;;;;;14.74;55.11;96479.00;4380826;32;20148;-80
2022/04/08 03:18:56;;;;;;;30.88;16.48;;;;;;;14.81;54.90;96486.28;4367075;32;20155;-80
2022/04/08 03:21:24;;;;;;;32.92;16.20;;;;;;;15.26;53.30;96490.13;4380758;32;20156;-80
2022/04/08 03:23:51;;;;;;;32.00;16.55;;;;;;;15.11;53.87;96501.84;4380416;32;20114;-79
2022/04/08 03:26:18;;;;;;;31.73;16.52;;;;;;;14.90;54.03;96493.28;4380499;32;20097;-80
2022/04/08 03:28:45;;;;;;;32.22;17.27;;;;;;;15.68;51.79;96508.19;4380614;32;20173;-80
2022/04/08 03:31:13;;;;;;;28.25;15.77;;;;;;;15.52;51.46;96520.84;4380634;32;20457;-80
2022/04/08 03:33:40;;;;;;;31.02;16.40;;;;;;;15.54;51.88;96540.56;4381180;32;20169;-80
2022/04/08 03:36:07;;;;;;;28.12;15.95;;;;;;;15.53;51.95;96566.69;4380730;32;20127;-80
2022/04/08 03:38:34;;;;;;;31.85;17.37;;;;;;;15.26;52.71;96570.69;4380563;32;20109;-80
2022/04/08 03:41:01;;;;;;;32.25;17.00;;;;;;;14.79;54.31;96577.28;4381435;32;20142;-80
2022/04/08 03:43:28;;;;;;;31.37;17.40;;;;;;;15.87;51.55;96590.62;4381337;32;20446;-80
2022/04/08 03:45:55;;;;;;;33.05;15.90;;;;;;;15.13;53.81;96577.88;4380904;32;20178;-80
2022/04/08 03:48:22;;;;;;;31.98;15.93;;;;;;;15.70;51.85;96573.88;4381687;32;20078;-80
2022/04/08 03:50:49;;;;;;;29.10;16.23;;;;;;;15.73;51.88;96573.59;4381565;32;20194;-80
2022/04/08 03:53:16;;;;;;;36.30;16.75;;;;;;;15.87;51.54;96577.63;4380965;32;20094;-80
2022/04/08 03:55:43;;;;;;;31.95;16.85;;;;;;;16.83;48.61;96586.44;4380847;32;20153;-80
2022/04/08 03:58:10;;;;;;;31.40;16.60;;;;;;;16.46;49.49;96589.72;4381485;32;20100;-81
2022/04/08 04:00:38;;;;;;;30.00;16.75;;;;;;;16.68;49.25;96593.84;4380587;32;20189;-80
2022/04/08 04:03:05;;;;;;;28.92;16.60;;;;;;;17.31;47.44;96601.94;4381182;32;20120;-81
2022/04/08 04:05:35;;;;;;;32.70;16.87;;;;;;;16.70;49.00;96594.56;4381206;32;20095;-81
2022/04/08 04:08:02;;;;;;;28.52;16.62;;;;;;;17.68;46.17;96603.75;4380980;32;20087;-81
2022/04/08 04:10:29;;;;;;;28.80;16.27;;;;;;;18.05;44.81;96598.47;4381073;32;20139;-80
2022/04/08 04:12:56;;;;;;;27.25;15.32;;;;;;;18.45;43.69;96606.72;4383468;32;20095;-79
2022/04/08 04:15:27;;;;;;;29.48;16.80;;;;;;;18.21;44.00;96599.47;4393160;32;20109;-80
2022/04/08 04:17:54;;;;;;;28.52;15.68;;;;;;;18.06;44.59;96600.94;4382811;32;20090;-80
2022/04/08 04:20:21;;;;;;;31.08;16.12;;;;;;;17.79;44.80;96600.97;4379670;32;20156;-78
2022/04/08 04:22:48;;;;;;;27.92;15.35;;;;;;;16.60;48.48;96598.91;4379892;32;20146;-78
2022/04/08 04:25:15;;;;;;;26.98;14.90;;;;;;;17.39;46.42;96617.72;4379558;32;20087;-78
2022/04/08 04:27:42;;;;;;;27.75;13.90;;;;;;;17.10;46.35;96616.97;4379070;32;20172;-76
2022/04/08 04:30:09;;;;;;;27.25;14.20;;;;;;;17.37;46.23;96616.22;4378964;32;20461;-76
2022/04/08 04:32:36;;;;;;;28.62;14.45;;;;;;;17.74;45.17;96624.03;4473920;27;20202;-76
2022/04/08 04:35:06;;;;;;;26.23;13.05;;;;;;;17.52;45.09;96628.62;4393574;32;20153;-76
2022/04/08 04:37:36;;;;;;;22.52;12.50;;;;;;;18.20;43.40;96636.19;4394010;32;20113;-75
2022/04/08 04:40:04;;;;;;;25.33;13.75;;;;;;;17.44;45.34;96661.59;4393835;32;20110;-75
2022/04/08 04:42:31;;;;;;;18.55;9.70;;;;;;;17.13;46.51;96668.81;4385437;32;20095;-75
2022/04/08 04:44:58;;;;;;;18.77;8.95;;;;;;;16.28;48.20;96672.06;4378590;32;20107;-75
2022/04/08 04:47:26;;;;;;;15.57;7.05;;;;;;;16.08;49.75;96672.00;4378879;32;20150;-75
2022/04/08 04:49:52;;;;;;;12.73;5.85;;;;;;;15.61;50.97;96668.25;4378440;32;20788;-75
2022/04/08 04:52:19;;;;;;;12.37;4.80;;;;;;;15.39;51.99;96671.81;4378318;32;20120;-75
2022/04/08 04:54:46;;;;;;;12.18;5.10;;;;;;;15.53;51.74;96684.50;4378508;32;20422;-75
2022/04/08 04:57:13;;;;;;;12.48;5.30;;;;;;;15.01;53.79;96682.81;4378928;32;20453;-75
2022/04/08 04:59:40;;;;;;;10.20;4.35;;;;;;;15.46;52.26;96679.94;4380616;32;20117;-75
2022/04/08 05:02:07;;;;;;;9.60;3.92;;;;;;;15.45;51.98;96688.69;4380324;32;20414;-75
2022/04/08 05:04:34;;;;;;;11.57;3.83;;;;;;;15.85;50.18;96696.56;4380637;32;20107;-75
2022/04/08 05:07:01;;;;;;;8.90;3.80;;;;;;;16.33;48.69;96701.09;4380845;32;20134;-75
2022/04/08 05:09:28;;;;;;;5.32;1.85;;;;;;;15.99;49.37;96705.78;4380373;32;20146;-75
2022/04/08 05:11:55;;;;;;;5.87;1.50;;;;;;;15.84;48.92;96707.91;4380384;32;20130;-76
2022/04/08 05:14:24;;;;;;;5.25;1.75;;;;;;;15.88;47.71;96722.31;4380530;32;20107;-76
2022/04/08 05:16:51;;;;;;;4.03;1.48;;;;;;;15.53;48.83;96718.28;4380394;32;20074;-76
2022/04/08 05:19:18;;;;;;;4.05;1.25;;;;;;;15.57;48.50;96731.84;4380535;32;20146;-75
2022/04/08 05:21:45;;;;;;;3.58;1.10;;;;;;;16.34;46.01;96734.78;4380523;32;20163;-75
2022/04/08 05:24:13;;;;;;;3.58;0.93;;;;;;;16.02;45.36;96723.72;4380148;32;20488;-75
2022/04/08 05:26:40;;;;;;;2.78;0.85;;;;;;;16.18;44.21;96750.09;4380666;32;20127;-75
2022/04/08 05:29:07;;;;;;;2.72;0.90;;;;;;;16.09;44.48;96751.72;4380696;32;20095;-75
2022/04/08 05:31:34;;;;;;;3.87;1.05;;;;;;;17.15;42.24;96763.31;4380134;32;20142;-75
2022/04/08 05:34:01;;;;;;;2.20;0.75;;;;;;;16.69;43.04;96768.22;4380263;32;20485;-75
2022/04/08 05:36:28;;;;;;;3.28;1.08;;;;;;;17.73;40.60;96778.91;4380530;32;20461;-75
2022/04/08 05:38:55;;;;;;;2.72;0.70;;;;;;;17.22;41.47;96783.47;4366586;32;20110;-75
2022/04/08 05:41:22;;;;;;;2.37;0.75;;;;;;;17.02;41.93;96793.09;4366975;32;20122;-75
2022/04/08 05:43:49;;;;;;;3.62;0.70;;;;;;;17.48;40.79;96786.34;4380388;32;20514;-76
2022/04/08 05:46:16;;;;;;;2.75;0.70;;;;;;;17.49;40.26;96788.00;4380157;32;20091;-75
2022/04/08 05:48:43;;;;;;;2.17;0.68;;;;;;;17.44;40.65;96787.59;4380459;32;20161;-75
2022/04/08 05:51:10;;;;;;;2.37;0.73;;;;;;;15.79;43.57;96786.34;4380208;32;20091;-75
2022/04/08 05:53:37;;;;;;;3.28;0.70;;;;;;;16.94;41.52;96799.94;4380426;32;20453;-75
2022/04/08 05:56:04;;;;;;;0.52;0.52;;;;;;;17.81;39.85;96797.31;4380149;32;20534;-75
2022/04/08 05:58:32;;;;;;;4.22;0.75;;;;;;;18.67;36.96;96796.19;4378754;32;20234;-76
2022/04/08 06:01:03;;;;;;;3.65;0.68;;;;;;;17.61;40.35;96794.69;4377967;32;20147;-76
2022/04/08 06:03:30;;;;;;;3.47;0.70;;;;;;;16.80;41.05;96798.53;4379575;32;20091;-76
2022/04/08 06:05:57;;;;;;;2.30;0.60;;;;;;;15.75;43.94;96799.72;4378834;32;20442;-76
2022/04/08 06:08:24;;;;;;;5.37;1.35;;;;;;;15.07;44.60;96800.94;4379104;32;20154;-75
2022/04/08 06:10:51;;;;;;;1.83;0.50;;;;;;;14.72;47.16;96815.81;4379460;32;20134;-74
2022/04/08 06:13:24;;;;;;;6.32;0.88;;;;;;;15.19;45.74;96815.53;4378717;32;20504;-74
2022/04/08 06:15:53;;;;;;;2.72;0.70;;;;;;;16.48;42.15;96824.72;4379095;32;20517;-75
2022/04/08 06:18:20;;;;;;;1.75;0.62;;;;;;;17.92;39.79;96820.63;4379736;32;20579;-75
2022/04/08 06:20:47;;;;;;;4.05;0.70;;;;;;;16.06;43.23;96816.19;4379319;32;20119;-75
2022/04/08 06:23:14;;;;;;;2.72;0.70;;;;;;;16.48;42.53;96840.31;4379410;32;20150;-76
2022/04/08 06:25:41;;;;;;;2.67;0.82;;;;;;;16.53;41.35;96835.56;4378659;32;20126;-76
2022/04/08 06:28:08;;;;;;;3.08;0.52;;;;;;;17.24;40.16;96844.13;4379106;32;20154;-76
2022/04/08 06:30:37;;;;;;;2.65;0.55;;;;;;;17.29;40.39;96852.34;4380062;32;20099;-75
2022/04/08 06:33:05;;;;;;;1.85;0.70;;;;;;;17.32;39.74;96846.84;4379530;32;20094;-75
2022/04/08 06:35:33;;;;;;;2.95;0.73;;;;;;;16.26;42.08;96828.31;4378561;32;20125;-75
2022/04/08 06:38:02;;;;;;;2.65;0.75;;;;;;;17.21;40.82;96835.72;4380541;32;20165;-76
2022/04/08 06:40:35;;;;;;;1.90;0.57;;;;;;;17.21;40.04;96838.34;4384060;32;20114;-81
2022/04/08 06:43:03;;;;;;;0.65;0.47;;;;;;;16.70;40.99;96808.94;4392837;32;20117;-80
2022/04/08 06:45:30;;;;;;;2.62;0.75;;;;;;;16.67;40.80;96811.75;4393191;32;20095;-77
2022/04/08 06:47:57;;;;;;;2.60;0.68;;;;;;;16.57;40.99;96812.69;4389223;32;20094;-77
2022/04/08 06:50:25;;;;;;;2.15;0.80;;;;;;;17.88;39.00;96840.16;4380241;32;20434;-80
2022/04/08 06:52:55;;;;;;;3.10;0.52;;;;;;;16.97;39.90;96849.97;4379466;32;20160;-78
2022/04/08 06:55:24;;;;;;;1.92;0.50;;;;;;;17.89;38.01;96839.19;4379240;32;20162;-76
2022/04/08 06:57:51;;;;;;;2.50;0.68;;;;;;;18.01;37.42;96837.25;4377841;32;20161;-76
2022/04/08 07:00:18;;;;;;;2.28;0.50;;;;;;;17.33;37.86;96837.25;4377273;32;20405;-75
2022/04/08 07:02:45;;;;;;;4.65;0.80;;;;;;;16.01;42.12;96829.56;4377174;32;20498;-76
2022/04/08 07:05:12;;;;;;;1.17;0.40;;;;;;;15.22;41.80;96816.16;4379044;32;20683;-75
2022/04/08 07:07:39;;;;;;;1.90;0.75;;;;;;;14.98;42.66;96810.31;4378559;32;20094;-76
2022/04/08 07:10:07;;;;;;;3.10;0.70;;;;;;;15.73;40.58;96823.25;4379031;32;20154;-77
2022/04/08 07:12:34;;;;;;;2.20;0.60;;;;;;;16.49;39.94;96845.44;4379015;32;20154;-77
2022/04/08 07:15:02;;;;;;;2.03;0.57;;;;;;;16.62;37.65;96842.59;4378948;32;20128;-77
2022/04/08 07:17:30;;;;;;;0.95;0.52;;;;;;;17.59;36.71;96845.37;4378145;32;20098;-77
2022/04/08 07:20:14;;;;;;;1.10;0.50;;;;;;;17.88;36.30;96858.41;4377421;32;20129;-77
2022/04/08 07:22:42;;;;;;;1.85;0.62;;;;;;;17.92;35.34;96885.88;4376540;32;20544;-76
2022/04/08 07:25:12;;;;;;;1.42;0.60;;;;;;;17.58;35.71;96888.88;4376650;32;20083;-76
2022/04/08 07:27:50;;;;;;;2.70;0.70;;;;;;;17.84;34.96;96898.78;4376412;32;20094;-78
2022/04/08 07:30:20;;;;;;;1.55;0.62;;;;;;;18.05;35.26;96899.44;4375442;32;20125;-77
2022/04/08 07:32:50;;;;;;;1.83;0.60;;;;;;;18.61;34.24;96896.03;4377100;32;20170;-79
2022/04/08 07:35:18;;;;;;;2.20;0.77;;;;;;;18.07;35.60;96881.84;4376830;32;20078;-77
2022/04/08 07:37:45;;;;;;;2.28;0.65;;;;;;;16.95;35.80;96882.34;4377947;32;20154;-77
2022/04/08 07:40:13;;;;;;;2.67;0.68;;;;;;;17.70;36.34;96897.41;4378942;32;20091;-77
2022/04/08 07:42:40;;;;;;;3.83;0.80;;;;;;;18.44;33.72;96901.97;4378788;32;20090;-76
2022/04/08 07:45:08;;;;;;;4.03;0.70;;;;;;;18.51;34.42;96913.50;4379124;32;20146;-79
2022/04/08 07:47:35;;;;;;;2.60;0.75;;;;;;;18.75;33.72;96918.25;4378384;32;20094;-78
2022/04/08 07:50:12;;;;;;;2.35;0.60;;;;;;;18.99;32.79;96934.25;4378793;32;20111;-77
2022/04/08 07:52:40;;;;;;;1.58;0.47;;;;;;;18.70;34.38;96930.91;4378539;32;20111;-77
2022/04/08 07:55:11;;;;;;;13.73;1.55;;;;;;;18.68;33.72;96923.22;4378362;32;20162;-76
2022/04/08 07:57:49;;;;;;;2.75;0.85;;;;;;;18.98;33.39;96918.72;4377162;32;20234;-76
2022/04/08 08:00:21;;;;;;;1.95;0.57;;;;;;;18.92;33.99;96914.87;4378500;32;20086;-76
2022/04/08 08:02:49;;;;;;;2.37;0.55;;;;;;;17.74;34.89;96903.16;4378567;32;20114;-77
2022/04/08 08:05:17;;;;;;;1.65;0.45;;;;;;;17.21;36.25;96935.59;4376897;32;20075;-77
2022/04/08 08:07:45;;;;;;;2.70;0.75;;;;;;;17.91;34.60;96952.91;4377959;32;20102;-77
2022/04/08 08:10:19;;;;;;;2.10;0.90;;;;;;;18.91;33.38;96955.03;4378832;32;20161;-76
2022/04/08 08:12:46;;;;;;;2.83;0.50;;;;;;;19.65;33.56;96952.34;4378147;32;20095;-76
2022/04/08 08:15:15;;;;;;;1.52;0.43;;;;;;;19.72;32.49;96949.94;4378122;32;20102;-76
2022/04/08 08:17:42;;;;;;;1.37;0.50;;;;;;;19.89;32.35;96970.09;4377710;32;20158;-77
2022/04/08 08:20:10;;;;;;;1.42;0.55;;;;;;;20.72;31.52;96983.66;4378078;32;20109;-77
2022/04/08 08:22:37;;;;;;;4.25;1.20;;;;;;;19.88;31.72;96984.16;4377102;32;20140;-77
2022/04/08 08:25:11;;;;;;;6.25;1.50;;;;;;;20.92;30.91;96973.78;4378157;32;20441;-77
2022/04/08 08:27:44;;;;;;;2.60;0.68;;;;;;;21.55;29.90;96986.53;4377402;32;20095;-76
2022/04/08 08:30:19;;;;;;;2.75;1.00;;;;;;;21.83;29.92;96970.53;4378517;32;20087;-75
2022/04/08 08:32:53;;;;;;;7.80;2.53;;;;;;;21.67;29.17;96972.12;4378971;32;20074;-75
2022/04/08 08:35:20;;;;;;;3.08;0.90;;;;;;;20.98;29.78;96977.59;4378605;32;20094;-75
2022/04/08 08:37:56;;;;;;;1.70;0.55;;;;;;;21.83;30.37;96988.91;4379734;32;20096;-75
2022/04/08 08:40:23;;;;;;;1.35;0.62;;;;;;;22.78;27.11;96980.38;4379795;32;20111;-76
2022/04/08 08:42:50;;;;;;;1.48;0.62;;;;;;;21.87;27.56;96979.72;4380105;32;20125;-75
2022/04/08 08:45:17;;;;;;;1.02;0.50;;;;;;;22.49;27.80;96987.97;4379961;32;20152;-76
2022/04/08 08:47:49;;;;;;;1.37;0.40;;;;;;;23.00;27.47;96997.31;4379774;32;20126;-76
2022/04/08 08:50:17;;;;;;;0.68;0.40;;;;;;;21.65;28.66;97002.97;4379146;32;20406;-77
2022/04/08 08:52:48;;;;;;;0.60;0.52;;;;;;;21.36;28.84;96994.66;4379872;32;20161;-76
2022/04/08 08:55:15;;;;;;;1.12;0.60;;;;;;;20.09;31.62;96990.84;4379534;32;20105;-76
2022/04/08 08:57:45;;;;;;;0.98;0.43;;;;;;;20.39;31.31;96964.25;4378858;32;20167;-76
2022/04/08 09:00:13;;;;;;;1.12;0.40;;;;;;;19.65;31.92;96969.81;4379952;32;20738;-76
2022/04/08 09:02:40;;;;;;;1.23;0.40;;;;;;;21.26;29.83;96976.44;4379692;32;20163;-76
2022/04/08 09:05:19;;;;;;;2.17;0.43;;;;;;;21.24;29.98;96988.03;4379909;32;20094;-76
2022/04/08 09:08:15;;;;;;;0.75;0.40;;;;;;;21.93;29.46;96997.47;4379237;32;20162;-76
2022/04/08 09:10:45;;;;;;;2.00;0.45;;;;;;;22.95;28.07;96996.16;4379400;32;20090;-76
2022/04/08 09:13:19;;;;;;;2.75;0.90;;;;;;;21.57;29.37;96981.94;4380156;32;20165;-76
2022/04/08 09:15:56;;;;;;;2.28;0.70;;;;;;;21.99;29.24;96973.16;4378868;32;20149;-76
2022/04/08 09:18:26;;;;;;;0.50;0.32;;;;;;;20.91;30.40;96969.53;4378770;32;20539;-77
2022/04/08 09:20:53;;;;;;;0.55;0.40;;;;;;;20.58;31.38;96981.63;4379905;32;20170;-76
2022/04/08 09:23:20;;;;;;;1.45;0.43;;;;;;;20.62;31.68;96982.94;4379252;32;20098;-77
2022/04/08 09:25:48;;;;;;;1.05;0.50;;;;;;;20.95;32.45;96981.38;4377829;32;20137;-77
2022/04/08 09:28:17;;;;;;;1.62;0.40;;;;;;;21.31;31.16;96986.47;4379814;32;20129;-76
2022/04/08 09:30:58;;;;;;;2.40;0.32;;;;;;;20.40;31.66;96999.13;4379638;32;20427;-77
2022/04/08 09:33:26;;;;;;;0.30;0.20;;;;;;;20.03;32.09;97008.00;4379531;32;20844;-76
2022/04/08 09:35:54;;;;;;;1.50;0.40;;;;;;;19.87;31.98;97013.87;4378826;32;20082;-77
2022/04/08 09:38:25;;;;;;;1.10;0.45;;;;;;;19.78;32.31;97016.56;4379955;32;20113;-76
2022/04/08 09:41:02;;;;;;;2.08;0.60;;;;;;;20.61;30.48;97007.50;4379824;32;20098;-77
2022/04/08 09:43:39;;;;;;;1.50;0.50;;;;;;;21.06;29.92;97001.25;4379260;32;20161;-76
2022/04/08 09:46:17;;;;;;;1.75;0.40;;;;;;;22.11;28.69;97008.66;4378835;32;20078;-76
2022/04/08 09:48:46;;;;;;;0.60;0.32;;;;;;;21.35;29.74;97000.91;4379809;32;20110;-76
2022/04/08 09:51:21;;;;;;;4.03;0.60;;;;;;;21.31;29.92;96999.59;4379394;32;20098;-76
2022/04/08 09:53:59;;;;;;;1.98;0.60;;;;;;;21.02;31.43;96992.84;4379634;32;20087;-77
2022/04/08 09:56:27;;;;;;;0.50;0.40;;;;;;;20.47;30.95;96994.97;4378416;32;20116;-76
2022/04/08 09:58:56;;;;;;;1.55;0.50;;;;;;;21.99;28.72;96991.53;4379227;32;20509;-77
2022/04/08 10:01:25;;;;;;;2.03;0.40;;;;;;;22.27;28.43;97001.78;4379614;32;20086;-76
2022/04/08 10:03:53;;;;;;;1.08;0.65;;;;;;;22.38;28.58;97004.09;4379375;32;20157;-76
2022/04/08 10:06:21;;;;;;;0.45;0.45;;;;;;;22.65;27.48;96993.25;4377566;32;20082;-77
2022/04/08 10:08:49;;;;;;;3.53;0.65;;;;;;;23.16;26.76;96991.16;4379477;32;20091;-77
2022/04/08 10:11:24;;;;;;;0.40;0.40;;;;;;;23.58;26.39;96992.63;4378159;32;20115;-77
2022/04/08 10:14:43;;;;;;;2.37;0.50;;;;;;;23.14;26.98;96987.06;4378275;32;20804;-77
2022/04/08 10:17:11;;;;;;;1.55;0.68;;;;;;;22.14;28.37;96981.28;4365467;32;20109;-77
2022/04/08 10:19:38;;;;;;;1.20;0.50;;;;;;;21.65;29.26;96981.16;4377846;32;20102;-76
2022/04/08 10:22:19;;;;;;;0.65;0.45;;;;;;;22.63;28.73;96982.03;4379227;32;20117;-77
2022/04/08 10:24:56;;;;;;;0.98;0.32;;;;;;;22.18;28.51;96978.13;4377928;32;20161;-77
2022/04/08 10:27:30;;;;;;;2.90;0.80;;;;;;;21.86;28.86;96973.66;4377259;32;20509;-77
2022/04/08 10:29:58;;;;;;;1.12;0.40;;;;;;;21.61;29.64;96966.72;4379464;32;20155;-77
2022/04/08 10:32:37;;;;;;;1.35;0.65;;;;;;;22.23;29.23;96975.84;4378924;32;20098;-77
2022/04/08 10:35:14;;;;;;;2.67;0.60;;;;;;;21.86;29.13;96984.16;4379321;32;20095;-76
2022/04/08 10:37:42;;;;;;;3.25;0.68;;;;;;;21.30;29.92;96984.81;4378419;32;20070;-75
2022/04/08 10:40:11;;;;;;;1.92;0.50;;;;;;;22.16;28.65;96984.53;4377966;32;20113;-76
2022/04/08 10:42:38;;;;;;;0.80;0.50;;;;;;;21.85;28.68;96982.50;4379134;32;20098;-76
2022/04/08 10:45:14;;;;;;;2.08;0.75;;;;;;;22.44;28.36;96988.50;4379189;32;20103;-76
2022/04/08 10:52:26;;;;;;;1.60;0.60;;;;;;;18.84;33.90;96979.31;4546922;31;266539;-74
2022/04/08 10:55:06;;;;;;;3.20;0.75;;;;;;;18.84;33.90;96979.31;4529552;31;20117;-74
2022/04/08 10:57:37;;;;;;;1.95;0.70;;;;;;;18.89;34.05;96983.13;4544519;31;20105;-74
2022/04/08 11:00:14;;;;;;;1.95;0.70;;;;;;;18.03;36.07;96986.69;4544067;31;20113;-74
2022/04/08 11:02:43;;;;;;;3.08;0.55;;;;;;;18.63;35.05;96987.31;4528855;31;20181;-74
2022/04/08 11:05:14;;;;;;;1.40;0.70;;;;;;;18.41;35.13;96983.22;4530858;31;20418;-74
2022/04/08 11:07:45;;;;;;;1.80;0.80;;;;;;;18.36;35.08;96977.59;4545735;31;20146;-74
2022/04/08 11:10:15;;;;;;;2.50;0.73;;;;;;;18.16;35.20;96976.78;4531894;31;20095;-74
2022/04/08 11:12:45;;;;;;;0.73;0.60;;;;;;;18.05;36.04;96975.13;4532674;31;20116;-74
2022/04/08 11:15:14;;;;;;;1.00;0.60;;;;;;;18.14;36.22;96973.50;4546538;31;20091;-77
2022/04/08 11:17:41;;;;;;;1.92;0.60;;;;;;;18.03;36.53;96969.22;4547029;31;20093;-74
2022/04/08 11:20:10;;;;;;;0.50;0.50;;;;;;;18.36;35.12;96960.13;4532555;31;20083;-74
2022/04/08 11:22:40;;;;;;;2.83;0.50;;;;;;;18.32;35.34;96957.94;4546537;31;20083;-73
2022/04/08 11:25:09;;;;;;;2.70;1.00;;;;;;;17.85;37.41;96950.81;4532219;31;20170;-73
2022/04/08 11:27:41;;;;;;;1.77;0.70;;;;;;;17.80;37.54;96950.41;4533056;31;20079;-72
2022/04/08 11:30:08;;;;;;;5.20;0.90;;;;;;;17.72;38.40;96949.44;4546513;31;20105;-73
2022/04/08 11:32:39;;;;;;;2.40;1.20;;;;;;;18.06;36.38;96942.03;4546687;31;20113;-72
2022/04/08 11:35:13;;;;;;;3.08;1.20;;;;;;;17.68;38.12;96935.00;4531979;31;20154;-72
2022/04/08 11:37:40;;;;;;;3.30;1.10;;;;;;;16.79;39.95;96942.72;4546852;31;20161;-73
2022/04/08 11:40:08;;;;;;;5.50;1.42;;;;;;;17.31;39.36;96933.03;4546817;31;20571;-73